createdAt,value
2018-03-15T00:00:10.647Z,94787.60
2018-03-15T00:02:39.007Z,94789.83
2018-03-15T00:05:07.395Z,94781.92
2018-03-15T00:07:35.738Z,94778.38
2018-03-15T00:10:04.161Z,94776.19
2018-03-15T00:12:32.498Z,94768.41
2018-03-15T00:15:00.826Z,94769.59
2018-03-15T00:17:29.194Z,94762.53
2018-03-15T00:19:57.519Z,94759.19
2018-03-15T00:22:25.938Z,94755.24
2018-03-15T00:24:54.328Z,94755.39
2018-03-15T00:27:22.708Z,94750.89
2018-03-15T00:29:51.100Z,94745.05
2018-03-15T00:32:19.463Z,94743.45
2018-03-15T00:34:47.834Z,94738.70
2018-03-15T00:37:16.185Z,94742.87
2018-03-15T00:39:44.601Z,94732.90
2018-03-15T00:42:12.935Z,94731.64
2018-03-15T00:44:41.344Z,94736.09
2018-03-15T00:47:09.731Z,94717.46
2018-03-15T00:49:38.086Z,94712.17
2018-03-15T00:52:06.494Z,94704.50
2018-03-15T00:54:34.826Z,94696.38
2018-03-15T00:57:03.148Z,94689.78
2018-03-15T00:59:31.484Z,94685.54
2018-03-15T01:01:59.814Z,94679.00
2018-03-15T01:04:28.190Z,94672.09
2018-03-15T01:06:56.505Z,94671.92
2018-03-15T01:09:24.871Z,94663.27
2018-03-15T01:11:53.212Z,94659.48
2018-03-15T01:14:21.559Z,94656.77
2018-03-15T01:16:49.880Z,94654.69
2018-03-15T01:19:18.227Z,94648.77
2018-03-15T01:21:46.563Z,94643.36
2018-03-15T01:24:15.015Z,94639.77
2018-03-15T01:26:43.382Z,94630.82
2018-03-15T01:29:11.734Z,94630.91
2018-03-15T01:31:40.050Z,94631.14
2018-03-15T01:34:08.521Z,94629.36
2018-03-15T01:36:36.886Z,94627.16
2018-03-15T01:39:05.238Z,94619.04
2018-03-15T01:41:33.594Z,94621.39
2018-03-15T01:44:01.932Z,94620.44
2018-03-15T01:46:30.307Z,94615.28
2018-03-15T01:48:58.639Z,94613.89
2018-03-15T01:51:26.993Z,94612.31
2018-03-15T01:53:55.303Z,94614.39
2018-03-15T01:56:23.663Z,94611.89
2018-03-15T01:58:51.999Z,94613.02
2018-03-15T02:01:20.338Z,94612.31
2018-03-15T02:03:48.661Z,94613.50
2018-03-15T02:06:17.010Z,94614.84
2018-03-15T02:08:45.387Z,94616.70
2018-03-15T02:11:13.734Z,94612.20
2018-03-15T02:13:42.058Z,94612.78
2018-03-15T02:16:10.382Z,94610.96
2018-03-15T02:18:38.734Z,94601.89
2018-03-15T02:21:07.078Z,94604.37
2018-03-15T02:23:35.412Z,94607.84
2018-03-15T02:26:03.744Z,94604.56
2018-03-15T02:28:32.076Z,94603.38
2018-03-15T02:31:00.406Z,94595.96
2018-03-15T02:33:28.718Z,94595.63
2018-03-15T02:35:57.058Z,94597.17
2018-03-15T02:38:25.372Z,94604.68
2018-03-15T02:40:53.749Z,94602.95
2018-03-15T02:43:22.075Z,94597.73
2018-03-15T02:45:50.404Z,94592.59
2018-03-15T02:48:18.830Z,94589.83
2018-03-15T02:50:47.164Z,94592.01
2018-03-15T02:53:15.487Z,94591.96
2018-03-15T02:55:43.814Z,94587.88
2018-03-15T02:58:12.141Z,94584.36
2018-03-15T03:00:40.478Z,94589.92
2018-03-15T03:03:08.825Z,94591.05
2018-03-15T03:05:37.174Z,94589.22
2018-03-15T03:08:05.515Z,94586.44
2018-03-15T03:10:33.930Z,94581.27
2018-03-15T03:13:02.307Z,94579.98
2018-03-15T03:15:30.695Z,94585.64
2018-03-15T03:17:59.071Z,94580.30
2018-03-15T03:20:27.447Z,94582.39
2018-03-15T03:22:55.775Z,94574.90
2018-03-15T03:25:24.095Z,94572.59
2018-03-15T03:27:52.407Z,94584.48
2018-03-15T03:30:20.723Z,94581.94
2018-03-15T03:32:49.138Z,94576.41
2018-03-15T03:35:17.515Z,94572.64
2018-03-15T03:37:45.890Z,94567.84
2018-03-15T03:40:14.223Z,94564.16
2018-03-15T03:42:42.644Z,94563.88
2018-03-15T03:45:11.030Z,94556.98
2018-03-15T03:47:39.373Z,94555.25
2018-03-15T03:50:07.782Z,94554.34
2018-03-15T03:52:36.121Z,94548.80
2018-03-15T03:55:04.535Z,94546.33
2018-03-15T03:57:32.911Z,94543.42
2018-03-15T04:00:02.191Z,94539.11
2018-03-15T04:02:30.589Z,94536.11
2018-03-15T04:04:58.927Z,94533.59
2018-03-15T04:07:27.240Z,94531.44
2018-03-15T04:09:55.622Z,94526.30
2018-03-15T04:12:23.947Z,94524.24
2018-03-15T04:14:52.384Z,94521.42
2018-03-15T04:17:20.709Z,94520.23
2018-03-15T04:19:49.155Z,94525.00
2018-03-15T04:22:17.484Z,94522.30
2018-03-15T04:24:45.816Z,94518.78
2018-03-15T04:27:14.139Z,94520.34
2018-03-15T04:29:42.563Z,94519.41
2018-03-15T04:32:10.936Z,94524.97
2018-03-15T04:34:39.283Z,94530.28
2018-03-15T04:37:07.607Z,94530.19
2018-03-15T04:39:35.965Z,94531.04
2018-03-15T04:42:04.345Z,94538.11
2018-03-15T04:44:32.664Z,94530.86
2018-03-15T04:47:01.096Z,94520.98
2018-03-15T04:49:29.423Z,94516.84
2018-03-15T04:51:57.850Z,94523.32
2018-03-15T04:54:26.186Z,94523.31
2018-03-15T04:56:54.521Z,94521.55
2018-03-15T04:59:22.846Z,94515.17
2018-03-15T05:01:51.185Z,94516.73
2018-03-15T05:04:19.624Z,94517.80
2018-03-15T05:06:48.020Z,94524.95
2018-03-15T05:09:16.350Z,94523.83
2018-03-15T05:11:44.783Z,94520.98
2018-03-15T05:14:13.115Z,94519.09
2018-03-15T05:16:41.500Z,94511.03
2018-03-15T05:19:09.798Z,94512.33
2018-03-15T05:21:38.134Z,94500.41
2018-03-15T05:24:06.515Z,94499.45
2018-03-15T05:26:34.846Z,94496.80
2018-03-15T05:29:03.166Z,94482.94
2018-03-15T05:31:31.519Z,94488.77
2018-03-15T05:33:59.854Z,94485.72
2018-03-15T05:36:28.258Z,94486.88
2018-03-15T05:38:56.595Z,94493.80
2018-03-15T05:41:24.930Z,94493.64
2018-03-15T05:43:53.299Z,94493.66
2018-03-15T05:46:21.649Z,94480.27
2018-03-15T05:48:49.975Z,94481.31
2018-03-15T05:51:18.295Z,94482.91
2018-03-15T05:53:46.638Z,94474.87
2018-03-15T05:56:14.975Z,94467.69
2018-03-15T05:58:44.132Z,94459.76
2018-03-15T06:01:12.559Z,94463.08
2018-03-15T06:03:40.927Z,94465.02
2018-03-15T06:06:09.241Z,94458.11
2018-03-15T06:08:37.578Z,94456.34
2018-03-15T06:11:05.957Z,94454.36
2018-03-15T06:13:34.340Z,94452.99
2018-03-15T06:16:02.671Z,94451.53
2018-03-15T06:18:31.016Z,94447.30
2018-03-15T06:20:59.371Z,94439.81
2018-03-15T06:23:27.724Z,94441.08
2018-03-15T06:25:56.122Z,94437.78
2018-03-15T06:28:24.460Z,94434.52
2018-03-15T06:30:52.797Z,94434.38
2018-03-15T06:33:21.123Z,94429.83
2018-03-15T06:35:49.462Z,94426.75
2018-03-15T06:38:17.835Z,94428.69
2018-03-15T06:40:46.160Z,94416.45
2018-03-15T06:43:14.617Z,94413.44
2018-03-15T06:45:42.928Z,94407.05
2018-03-15T06:48:11.309Z,94407.29
2018-03-15T06:50:39.729Z,94414.22
2018-03-15T06:53:08.048Z,94424.69
2018-03-15T06:55:36.383Z,94424.47
2018-03-15T06:58:04.758Z,94418.84
2018-03-15T07:00:33.115Z,94399.03
2018-03-15T07:03:01.462Z,94402.23
2018-03-15T07:05:29.791Z,94407.25
2018-03-15T07:07:58.111Z,94412.77
2018-03-15T07:10:26.531Z,94410.80
2018-03-15T07:12:54.835Z,94405.73
2018-03-15T07:15:23.311Z,94401.42
2018-03-15T07:17:51.714Z,94401.13
2018-03-15T07:20:20.223Z,94405.53
2018-03-15T07:22:48.536Z,94387.91
2018-03-15T07:25:16.902Z,94382.22
2018-03-15T07:27:45.289Z,94374.59
2018-03-15T07:30:13.668Z,94385.55
2018-03-15T07:32:42.038Z,94383.81
2018-03-15T07:35:10.412Z,94377.98
2018-03-15T07:37:38.790Z,94383.23
2018-03-15T07:40:07.214Z,94382.84
2018-03-15T07:42:36.557Z,94388.91
2018-03-15T07:45:04.891Z,94396.55
2018-03-15T07:47:33.236Z,94395.75
2018-03-15T07:50:01.579Z,94392.68
2018-03-15T07:52:29.891Z,94387.93
2018-03-15T07:54:58.300Z,94388.18
2018-03-15T07:57:26.643Z,94385.56
2018-03-15T07:59:54.975Z,94382.22
2018-03-15T08:02:23.331Z,94377.11
2018-03-15T08:04:51.712Z,94380.84
2018-03-15T08:07:20.097Z,94383.35
2018-03-15T08:09:48.394Z,94370.91
2018-03-15T08:12:16.810Z,94364.38
2018-03-15T08:14:46.226Z,94362.94
2018-03-15T08:17:14.573Z,94363.05
2018-03-15T08:19:42.900Z,94353.94
2018-03-15T08:22:11.226Z,94351.50
2018-03-15T08:24:39.546Z,94351.30
2018-03-15T08:27:07.881Z,94347.00
2018-03-15T08:29:36.318Z,94343.47
2018-03-15T08:32:04.698Z,94347.77
2018-03-15T08:34:33.135Z,94349.33
2018-03-15T08:37:01.451Z,94349.03
2018-03-15T08:39:29.811Z,94346.09
2018-03-15T08:41:58.145Z,94341.41
2018-03-15T08:44:26.591Z,94338.81
2018-03-15T08:46:54.967Z,94348.67
2018-03-15T08:49:23.290Z,94353.82
2018-03-15T08:51:51.622Z,94343.84
2018-03-15T08:54:19.942Z,94340.62
2018-03-15T08:56:48.340Z,94342.38
2018-03-15T08:59:16.662Z,94333.02
2018-03-15T09:01:44.980Z,94334.89
2018-03-15T09:04:13.317Z,94325.67
2018-03-15T09:06:41.649Z,94327.20
2018-03-15T09:09:10.028Z,94323.06
2018-03-15T09:11:39.127Z,94324.90
2018-03-15T09:14:07.466Z,94326.07
2018-03-15T09:16:35.887Z,94325.39
2018-03-15T09:19:04.251Z,94315.48
2018-03-15T09:21:32.605Z,94299.42
2018-03-15T09:24:00.905Z,94298.41
2018-03-15T09:26:29.283Z,94303.59
2018-03-15T09:28:57.931Z,94298.94
2018-03-15T09:31:26.329Z,94281.06
2018-03-15T09:33:54.655Z,94277.30
2018-03-15T09:36:23.034Z,94284.16
2018-03-15T09:38:51.364Z,94274.94
2018-03-15T09:41:19.803Z,94266.95
2018-03-15T09:43:48.112Z,94256.05
2018-03-15T09:46:16.508Z,94251.91
2018-03-15T09:48:44.782Z,94256.10
2018-03-15T09:51:13.189Z,94248.16
2018-03-15T09:53:41.551Z,94241.23
2018-03-15T09:56:09.883Z,94238.22
2018-03-15T09:58:38.207Z,94237.83
2018-03-15T10:01:06.595Z,94231.72
2018-03-15T10:03:34.953Z,94228.39
2018-03-15T10:06:03.347Z,94208.66
2018-03-15T10:08:31.667Z,94200.32
2018-03-15T10:11:00.007Z,94196.40
2018-03-15T10:13:28.380Z,94186.27
2018-03-15T10:15:56.707Z,94185.63
2018-03-15T10:18:25.037Z,94188.06
2018-03-15T10:20:53.404Z,94183.53
2018-03-15T10:23:21.794Z,94183.89
2018-03-15T10:25:50.130Z,94178.39
2018-03-15T10:28:18.446Z,94181.52
2018-03-15T10:30:46.828Z,94181.61
2018-03-15T10:33:20.698Z,94194.25
2018-03-15T10:35:49.120Z,94190.86
2018-03-15T10:38:17.482Z,94192.75
2018-03-15T10:40:45.844Z,94186.69
2018-03-15T10:43:14.179Z,94180.17
2018-03-15T10:45:42.553Z,94175.81
2018-03-15T10:48:10.899Z,94176.26
2018-03-15T10:50:39.271Z,94170.63
2018-03-15T10:53:07.603Z,94167.47
2018-03-15T10:55:35.923Z,94160.83
2018-03-15T10:58:04.256Z,94146.38
2018-03-15T11:00:39.075Z,94146.16
2018-03-15T11:03:12.961Z,94150.34
2018-03-15T11:05:46.250Z,94147.90
2018-03-15T11:08:20.292Z,94152.05
2018-03-15T11:10:48.729Z,94153.39
2018-03-15T11:13:17.103Z,94156.13
2018-03-15T11:15:45.444Z,94147.56
2018-03-15T11:18:13.814Z,94145.44
2018-03-15T11:20:42.157Z,94137.75
2018-03-15T11:23:10.498Z,94134.05
2018-03-15T11:25:38.831Z,94138.00
2018-03-15T11:28:07.180Z,94132.77
2018-03-15T11:30:35.525Z,94146.48
2018-03-15T11:33:03.879Z,94131.20
2018-03-15T11:35:33.195Z,94126.73
2018-03-15T11:38:01.542Z,94117.31
2018-03-15T11:40:29.876Z,94121.50
2018-03-15T11:42:58.260Z,94115.53
2018-03-15T11:45:26.605Z,94106.41
2018-03-15T11:47:54.956Z,94102.28
2018-03-15T11:50:23.296Z,94104.94
2018-03-15T11:52:51.645Z,94095.51
2018-03-15T11:55:19.977Z,94080.89
2018-03-15T11:57:49.339Z,94070.73
2018-03-15T12:00:17.683Z,94063.11
2018-03-15T12:02:46.023Z,94062.55
2018-03-15T12:05:14.361Z,94055.09
2018-03-15T12:07:42.774Z,94049.64
2018-03-15T12:10:11.059Z,94033.47
2018-03-15T12:12:39.398Z,94035.30
2018-03-15T12:15:07.907Z,94024.81
2018-03-15T12:17:36.301Z,94024.61
2018-03-15T12:20:04.620Z,94016.86
2018-03-15T12:22:32.942Z,94017.63
2018-03-15T12:25:01.314Z,94013.88
2018-03-15T12:27:29.700Z,94022.30
2018-03-15T12:29:58.042Z,94017.25
2018-03-15T12:32:26.431Z,94017.16
2018-03-15T12:34:54.788Z,94010.29
2018-03-15T12:37:23.115Z,94005.81
2018-03-15T12:39:51.427Z,94000.34
2018-03-15T12:42:19.765Z,93997.19
2018-03-15T12:44:48.125Z,93983.30
2018-03-15T12:47:16.449Z,93990.27
2018-03-15T12:49:44.777Z,93977.03
2018-03-15T12:52:13.091Z,93967.92
2018-03-15T12:54:41.418Z,93961.43
2018-03-15T12:57:10.738Z,93951.20
2018-03-15T12:59:39.054Z,93950.81
2018-03-15T13:02:07.422Z,93952.13
2018-03-15T13:04:35.788Z,93951.93
2018-03-15T13:07:04.110Z,93942.86
2018-03-15T13:09:32.556Z,93935.17
2018-03-15T13:12:00.940Z,93925.19
2018-03-15T13:14:29.245Z,93926.78
2018-03-15T13:16:57.660Z,93928.25
2018-03-15T13:19:25.985Z,93929.89
2018-03-15T13:21:54.433Z,93924.65
2018-03-15T13:24:23.684Z,93911.69
2018-03-15T13:26:52.023Z,93912.11
2018-03-15T13:29:20.335Z,93914.91
2018-03-15T13:31:48.675Z,93915.92
2018-03-15T13:34:17.014Z,93914.05
2018-03-15T13:36:45.367Z,93906.14
2018-03-15T13:39:13.740Z,93894.50
2018-03-15T13:41:42.056Z,93896.81
2018-03-15T13:44:10.420Z,93896.93
2018-03-15T13:46:38.815Z,93892.45
2018-03-15T13:49:07.140Z,93901.20
2018-03-15T13:51:35.459Z,93904.11
2018-03-15T13:54:03.810Z,93896.91
2018-03-15T13:56:32.141Z,93889.34
2018-03-15T13:59:00.528Z,93891.48
2018-03-15T14:01:28.871Z,93888.01
2018-03-15T14:03:57.210Z,93882.55
2018-03-15T14:06:25.637Z,93874.77
2018-03-15T14:08:53.989Z,93868.73
2018-03-15T14:11:22.319Z,93872.60
2018-03-15T14:13:50.658Z,93865.22
2018-03-15T14:16:18.991Z,93867.49
2018-03-15T14:18:47.346Z,93860.15
2018-03-15T14:21:15.690Z,93863.90
2018-03-15T14:23:44.071Z,93860.92
2018-03-15T14:26:12.397Z,93859.73
2018-03-15T14:28:40.760Z,93857.05
2018-03-15T14:31:09.099Z,93847.89
2018-03-15T14:33:37.449Z,93849.19
2018-03-15T14:36:05.900Z,93844.45
2018-03-15T14:38:35.123Z,93843.90
2018-03-15T14:41:03.561Z,93849.14
2018-03-15T14:43:31.996Z,93853.80
2018-03-15T14:46:00.402Z,93851.86
2018-03-15T14:48:28.794Z,93852.06
2018-03-15T14:50:58.441Z,93848.26
2018-03-15T14:53:26.871Z,93853.25
2018-03-15T14:55:55.219Z,93848.70
2018-03-15T14:58:24.518Z,93852.27
2018-03-15T15:00:52.859Z,93849.97
2018-03-15T15:03:21.202Z,93849.29
2018-03-15T15:05:49.556Z,93860.16
2018-03-15T15:08:18.854Z,93852.42
2018-03-15T15:10:47.178Z,93853.22
2018-03-15T15:13:15.508Z,93854.19
2018-03-15T15:15:43.853Z,93852.45
2018-03-15T15:18:12.190Z,93854.38
2018-03-15T15:20:40.529Z,93855.34
2018-03-15T15:23:08.897Z,93852.58
2018-03-15T15:25:37.232Z,93846.46
2018-03-15T15:28:05.565Z,93850.11
2018-03-15T15:30:33.896Z,93854.61
2018-03-15T15:33:02.219Z,93855.25
2018-03-15T15:35:30.564Z,93856.13
2018-03-15T15:37:58.906Z,93854.11
2018-03-15T15:40:27.244Z,93846.27
2018-03-15T15:42:55.574Z,93851.50
2018-03-15T15:45:24.004Z,93858.92
2018-03-15T15:47:52.344Z,93864.34
2018-03-15T15:50:20.753Z,93860.28
2018-03-15T15:52:49.091Z,93861.16
2018-03-15T15:55:17.518Z,93862.91
2018-03-15T15:57:45.867Z,93865.95
2018-03-15T16:00:14.197Z,93860.11
2018-03-15T16:02:42.589Z,93860.81
2018-03-15T16:05:10.979Z,93855.17
2018-03-15T16:07:39.311Z,93858.85
2018-03-15T16:10:07.639Z,93863.04
2018-03-15T16:12:36.048Z,93862.61
2018-03-15T16:15:04.386Z,93858.67
2018-03-15T16:17:32.719Z,93860.31
2018-03-15T16:20:01.638Z,93868.53
2018-03-15T16:22:29.967Z,93859.50
2018-03-15T16:24:58.298Z,93859.21
2018-03-15T16:27:26.662Z,93863.34
2018-03-15T16:29:54.980Z,93864.20
2018-03-15T16:32:23.325Z,93867.14
2018-03-15T16:34:51.654Z,93876.79
2018-03-15T16:37:20.335Z,93872.54
2018-03-15T16:39:48.671Z,93871.13
2018-03-15T16:42:17.056Z,93868.78
2018-03-15T16:44:45.409Z,93857.19
2018-03-15T16:47:13.727Z,93860.71
2018-03-15T16:49:42.055Z,93859.66
2018-03-15T16:52:10.424Z,93866.62
2018-03-15T16:54:38.726Z,93864.47
2018-03-15T16:57:07.153Z,93859.71
2018-03-15T16:59:35.524Z,93869.61
2018-03-15T17:02:03.828Z,93864.54
2018-03-15T17:04:32.250Z,93862.50
2018-03-15T17:07:00.596Z,93864.73
2018-03-15T17:09:29.048Z,93860.72
2018-03-15T17:11:57.394Z,93857.41
2018-03-15T17:14:25.811Z,93853.96
2018-03-15T17:16:54.120Z,93856.37
2018-03-15T17:19:22.492Z,93857.66
2018-03-15T17:21:50.799Z,93855.81
2018-03-15T17:24:19.159Z,93855.16
2018-03-15T17:26:47.479Z,93858.33
2018-03-15T17:29:15.832Z,93859.84
2018-03-15T17:31:44.207Z,93860.63
2018-03-15T17:34:12.549Z,93862.76
2018-03-15T17:36:40.989Z,93856.25
2018-03-15T17:39:09.310Z,93855.04
2018-03-15T17:41:37.758Z,93860.41
2018-03-15T17:44:06.050Z,93858.23
2018-03-15T17:46:34.539Z,93854.06
2018-03-15T17:49:02.868Z,93858.14
2018-03-15T17:51:31.262Z,93849.44
2018-03-15T17:53:59.590Z,93857.25
2018-03-15T17:56:27.927Z,93851.23
2018-03-15T17:58:56.299Z,93845.08
2018-03-15T18:01:24.639Z,93848.88
2018-03-15T18:03:52.980Z,93841.93
2018-03-15T18:06:21.317Z,93838.98
2018-03-15T18:08:49.639Z,93823.91
2018-03-15T18:11:17.966Z,93825.70
2018-03-15T18:13:46.346Z,93823.12
2018-03-15T18:16:14.731Z,93826.91
2018-03-15T18:18:43.102Z,93821.63
2018-03-15T18:21:11.508Z,93824.02
2018-03-15T18:23:39.854Z,93824.35
2018-03-15T18:26:08.208Z,93825.17
2018-03-15T18:28:36.529Z,93829.80
2018-03-15T18:31:04.951Z,93829.85
2018-03-15T18:33:33.278Z,93836.59
2018-03-15T18:36:01.620Z,93842.51
2018-03-15T18:38:30.014Z,93841.61
2018-03-15T18:40:58.481Z,93840.28
2018-03-15T18:43:26.799Z,93843.97
2018-03-15T18:45:55.173Z,93842.98
2018-03-15T18:48:23.510Z,93851.19
2018-03-15T18:50:51.952Z,93855.17
2018-03-15T18:53:21.479Z,93850.97
2018-03-15T18:55:49.818Z,93851.83
2018-03-15T18:58:18.126Z,93849.91
2018-03-15T19:00:46.470Z,93854.76
2018-03-15T19:03:14.778Z,93857.84
2018-03-15T19:05:43.194Z,93859.68
2018-03-15T19:08:11.688Z,93864.17
2018-03-15T19:10:40.063Z,93855.33
2018-03-15T19:13:08.471Z,93856.30
2018-03-15T19:15:36.787Z,93842.41
2018-03-15T19:18:05.199Z,93845.50
2018-03-15T19:20:33.575Z,93849.70
2018-03-15T19:23:01.923Z,93839.30
2018-03-15T19:25:30.235Z,93853.91
2018-03-15T19:27:58.578Z,93867.19
2018-03-15T19:30:26.910Z,93859.47
2018-03-15T19:32:55.223Z,93853.97
2018-03-15T19:35:23.538Z,93849.23
2018-03-15T19:37:51.916Z,93836.16
2018-03-15T19:40:20.239Z,93836.48
2018-03-15T19:42:48.562Z,93849.53
2018-03-15T19:45:17.868Z,93857.78
2018-03-15T19:47:46.247Z,93864.23
2018-03-15T19:50:14.623Z,93876.27
2018-03-15T19:52:42.956Z,93892.55
2018-03-15T19:55:11.390Z,93909.42
2018-03-15T19:57:39.799Z,93889.59
2018-03-15T20:00:08.167Z,93882.67
2018-03-15T20:02:36.519Z,93894.13
2018-03-15T20:05:04.891Z,93896.27
2018-03-15T20:07:33.224Z,93892.84
2018-03-15T20:10:01.647Z,93900.41
2018-03-15T20:12:29.963Z,93904.67
2018-03-15T20:14:58.287Z,93897.95
2018-03-15T20:17:26.607Z,93901.17
2018-03-15T20:19:54.960Z,93898.81
2018-03-15T20:22:28.941Z,93894.86
2018-03-15T20:24:57.286Z,93897.13
2018-03-15T20:27:31.241Z,93909.81
2018-03-15T20:29:59.673Z,93905.02
2018-03-15T20:32:33.418Z,93908.23
2018-03-15T20:35:01.756Z,93907.98
2018-03-15T20:37:30.130Z,93917.15
2018-03-15T20:40:04.055Z,93925.83
2018-03-15T20:42:32.383Z,93939.56
2018-03-15T20:45:00.737Z,93956.98
2018-03-15T20:47:35.731Z,93972.24
2018-03-15T20:50:04.079Z,93976.85
2018-03-15T20:52:32.455Z,93988.14
2018-03-15T20:55:00.853Z,93974.45
2018-03-15T20:57:29.211Z,93987.84
2018-03-15T20:59:57.519Z,94002.43
2018-03-15T21:02:25.862Z,93994.75
2018-03-15T21:04:54.184Z,93999.97
2018-03-15T21:07:22.503Z,93990.93
2018-03-15T21:09:50.834Z,93994.31
2018-03-15T21:12:19.157Z,93985.89
2018-03-15T21:14:47.519Z,93989.67
2018-03-15T21:17:15.927Z,93995.52
2018-03-15T21:19:44.312Z,93995.73
2018-03-15T21:22:12.631Z,94002.72
2018-03-15T21:24:40.954Z,94011.10
2018-03-15T21:27:09.330Z,94014.61
2018-03-15T21:29:37.630Z,94025.12
2018-03-15T21:32:06.039Z,94028.17
2018-03-15T21:34:34.381Z,94031.41
2018-03-15T21:37:02.699Z,94025.92
2018-03-15T21:39:31.056Z,94035.08
2018-03-15T21:41:59.390Z,94022.30
2018-03-15T21:44:28.840Z,94032.83
2018-03-15T21:46:57.159Z,94028.90
2018-03-15T21:49:25.566Z,94027.40
2018-03-15T21:51:53.936Z,94031.69
2018-03-15T21:54:22.329Z,94037.58
2018-03-15T21:56:50.650Z,94033.58
2018-03-15T21:59:19.116Z,94036.02
2018-03-15T22:01:47.552Z,94035.26
2018-03-15T22:04:15.892Z,94045.47
2018-03-15T22:06:44.408Z,94049.52
2018-03-15T22:09:12.804Z,94059.62
2018-03-15T22:11:41.172Z,94067.05
2018-03-15T22:14:09.503Z,94074.25
2018-03-15T22:16:37.824Z,94081.90
2018-03-15T22:19:06.303Z,94081.96
2018-03-15T22:21:34.643Z,94082.80
2018-03-15T22:24:02.963Z,94092.55
2018-03-15T22:26:31.331Z,94095.28
2018-03-15T22:28:59.654Z,94103.15
2018-03-15T22:31:28.091Z,94095.94
2018-03-15T22:33:56.490Z,94100.91
2018-03-15T22:36:24.814Z,94098.73
2018-03-15T22:38:53.236Z,94097.00
2018-03-15T22:41:21.564Z,94095.71
2018-03-15T22:43:49.876Z,94107.08
2018-03-15T22:46:18.356Z,94105.11
2018-03-15T22:48:46.735Z,94103.13
2018-03-15T22:51:15.119Z,94109.11
2018-03-15T22:53:43.491Z,94104.94
2018-03-15T22:56:11.819Z,94109.22
2018-03-15T22:58:40.147Z,94116.13
2018-03-15T23:01:08.511Z,94116.61
2018-03-15T23:03:36.894Z,94123.52
2018-03-15T23:06:05.246Z,94130.45
2018-03-15T23:08:33.555Z,94137.03
2018-03-15T23:11:01.878Z,94141.02
2018-03-15T23:13:30.198Z,94145.22
2018-03-15T23:15:58.527Z,94148.17
2018-03-15T23:18:26.870Z,94146.72
2018-03-15T23:20:55.209Z,94153.59
2018-03-15T23:23:23.546Z,94152.80
2018-03-15T23:25:51.859Z,94155.20
2018-03-15T23:28:20.183Z,94153.98
2018-03-15T23:30:48.508Z,94148.19
2018-03-15T23:33:16.827Z,94158.80
2018-03-15T23:35:45.219Z,94160.45
2018-03-15T23:38:13.557Z,94173.73
2018-03-15T23:40:41.962Z,94170.91
2018-03-15T23:43:10.342Z,94168.95
2018-03-15T23:45:38.766Z,94171.06
2018-03-15T23:48:07.096Z,94172.45
2018-03-15T23:50:35.424Z,94177.73
2018-03-15T23:53:03.796Z,94175.72
2018-03-15T23:55:32.188Z,94187.93
2018-03-15T23:58:00.550Z,94181.72
